sensor_id;sensor_type;location;lat;lon;timestamp;P1;durP1;ratioP1;P2;durP2;ratioP2
43819;SDS011;59678;52.476;6.046;2022-09-17T00:00:33;6.68;;;6.30;;
43819;SDS011;59678;52.476;6.046;2022-09-17T00:02:59;6.78;;;6.45;;
43819;SDS011;59678;52.476;6.046;2022-09-17T00:05:26;6.72;;;6.43;;
43819;SDS011;59678;52.476;6.046;2022-09-17T00:07:51;5.10;;;4.80;;
43819;SDS011;59678;52.476;6.046;2022-09-17T00:10:18;5.65;;;5.35;;
43819;SDS011;59678;52.476;6.046;2022-09-17T00:12:44;4.85;;;4.55;;
43819;SDS011;59678;52.476;6.046;2022-09-17T00:15:09;5.15;;;4.85;;
43819;SDS011;59678;52.476;6.046;2022-09-17T00:17:35;5.15;;;4.85;;
43819;SDS011;59678;52.476;6.046;2022-09-17T00:20:01;5.82;;;5.53;;
43819;SDS011;59678;52.476;6.046;2022-09-17T00:22:26;4.35;;;4.15;;
43819;SDS011;59678;52.476;6.046;2022-09-17T00:24:52;3.95;;;3.75;;
43819;SDS011;59678;52.476;6.046;2022-09-17T00:27:18;6.57;;;6.10;;
43819;SDS011;59678;52.476;6.046;2022-09-17T00:29:43;10.57;;;3.55;;
43819;SDS011;59678;52.476;6.046;2022-09-17T00:32:09;13.60;;;4.45;;
43819;SDS011;59678;52.476;6.046;2022-09-17T00:34:34;9.00;;;5.80;;
43819;SDS011;59678;52.476;6.046;2022-09-17T00:37:00;16.35;;;4.03;;
43819;SDS011;59678;52.476;6.046;2022-09-17T00:39:26;19.65;;;6.82;;
43819;SDS011;59678;52.476;6.046;2022-09-17T00:41:51;12.98;;;7.53;;
43819;SDS011;59678;52.476;6.046;2022-09-17T00:44:38;14.77;;;7.00;;
43819;SDS011;59678;52.476;6.046;2022-09-17T00:47:04;13.10;;;7.88;;
43819;SDS011;59678;52.476;6.046;2022-09-17T00:49:32;18.33;;;7.00;;
43819;SDS011;59678;52.476;6.046;2022-09-17T00:52:00;13.00;;;8.00;;
43819;SDS011;59678;52.476;6.046;2022-09-17T00:54:28;15.68;;;7.57;;
43819;SDS011;59678;52.476;6.046;2022-09-17T00:56:54;12.13;;;6.38;;
43819;SDS011;59678;52.476;6.046;2022-09-17T00:59:21;13.18;;;6.30;;
43819;SDS011;59678;52.476;6.046;2022-09-17T01:01:47;9.38;;;4.57;;
43819;SDS011;59678;52.476;6.046;2022-09-17T01:04:17;5.60;;;4.57;;
43819;SDS011;59678;52.476;6.046;2022-09-17T01:12:03;17.15;;;5.30;;
43819;SDS011;59678;52.476;6.046;2022-09-17T01:14:37;16.05;;;6.57;;
43819;SDS011;59678;52.476;6.046;2022-09-17T01:17:17;11.50;;;5.35;;
43819;SDS011;59678;52.476;6.046;2022-09-17T01:24:45;21.00;;;6.45;;
43819;SDS011;59678;52.476;6.046;2022-09-17T01:37:24;20.05;;;3.58;;
43819;SDS011;59678;52.476;6.046;2022-09-17T01:39:55;13.35;;;2.50;;
43819;SDS011;59678;52.476;6.046;2022-09-17T01:42:34;12.43;;;2.40;;
43819;SDS011;59678;52.476;6.046;2022-09-17T01:47:36;4.72;;;1.88;;
43819;SDS011;59678;52.476;6.046;2022-09-17T01:50:10;10.52;;;2.22;;
43819;SDS011;59678;52.476;6.046;2022-09-17T01:52:37;10.67;;;2.70;;
43819;SDS011;59678;52.476;6.046;2022-09-17T01:55:04;15.45;;;2.58;;
43819;SDS011;59678;52.476;6.046;2022-09-17T01:57:37;10.70;;;2.08;;
43819;SDS011;59678;52.476;6.046;2022-09-17T02:00:06;10.85;;;2.05;;
43819;SDS011;59678;52.476;6.046;2022-09-17T02:02:59;10.70;;;3.13;;
43819;SDS011;59678;52.476;6.046;2022-09-17T02:05:28;12.30;;;2.42;;
43819;SDS011;59678;52.476;6.046;2022-09-17T02:08:13;5.65;;;1.27;;
43819;SDS011;59678;52.476;6.046;2022-09-17T02:10:42;6.22;;;2.13;;
43819;SDS011;59678;52.476;6.046;2022-09-17T02:13:52;13.00;;;1.83;;
43819;SDS011;59678;52.476;6.046;2022-09-17T02:16:01;9.65;;;2.17;;
43819;SDS011;59678;52.476;6.046;2022-09-17T02:18:33;7.47;;;1.77;;
43819;SDS011;59678;52.476;6.046;2022-09-17T02:21:06;8.80;;;1.50;;
43819;SDS011;59678;52.476;6.046;2022-09-17T02:23:33;12.05;;;2.25;;
43819;SDS011;59678;52.476;6.046;2022-09-17T02:26:07;9.02;;;1.33;;
43819;SDS011;59678;52.476;6.046;2022-09-17T02:31:07;7.18;;;1.80;;
43819;SDS011;59678;52.476;6.046;2022-09-17T02:33:33;9.95;;;1.65;;
43819;SDS011;59678;52.476;6.046;2022-09-17T02:36:00;10.02;;;1.52;;
43819;SDS011;59678;52.476;6.046;2022-09-17T02:38:26;6.38;;;1.33;;
43819;SDS011;59678;52.476;6.046;2022-09-17T02:51:36;3.65;;;1.15;;
43819;SDS011;59678;52.476;6.046;2022-09-17T02:54:21;5.60;;;1.65;;
43819;SDS011;59678;52.476;6.046;2022-09-17T02:59:24;8.07;;;1.60;;
43819;SDS011;59678;52.476;6.046;2022-09-17T03:01:55;8.85;;;1.75;;
43819;SDS011;59678;52.476;6.046;2022-09-17T03:04:22;10.18;;;2.83;;
43819;SDS011;59678;52.476;6.046;2022-09-17T03:06:48;7.15;;;1.95;;
43819;SDS011;59678;52.476;6.046;2022-09-17T03:09:16;8.85;;;2.00;;
43819;SDS011;59678;52.476;6.046;2022-09-17T03:11:42;2.92;;;1.08;;
43819;SDS011;59678;52.476;6.046;2022-09-17T03:14:07;3.80;;;1.10;;
43819;SDS011;59678;52.476;6.046;2022-09-17T03:16:33;6.32;;;1.70;;
43819;SDS011;59678;52.476;6.046;2022-09-17T03:18:59;12.95;;;11.27;;
43819;SDS011;59678;52.476;6.046;2022-09-17T03:21:24;9.82;;;8.85;;
43819;SDS011;59678;52.476;6.046;2022-09-17T03:23:50;8.70;;;7.88;;
43819;SDS011;59678;52.476;6.046;2022-09-17T03:26:17;5.53;;;4.95;;
43819;SDS011;59678;52.476;6.046;2022-09-17T03:28:43;12.82;;;10.20;;
43819;SDS011;59678;52.476;6.046;2022-09-17T03:31:08;14.35;;;12.80;;
43819;SDS011;59678;52.476;6.046;2022-09-17T03:33:34;12.73;;;10.73;;
43819;SDS011;59678;52.476;6.046;2022-09-17T03:36:00;11.13;;;7.82;;
43819;SDS011;59678;52.476;6.046;2022-09-17T03:38:25;12.20;;;6.80;;
43819;SDS011;59678;52.476;6.046;2022-09-17T03:41:01;11.27;;;8.13;;
43819;SDS011;59678;52.476;6.046;2022-09-17T03:43:27;10.15;;;8.80;;
43819;SDS011;59678;52.476;6.046;2022-09-17T03:45:52;12.68;;;11.50;;
43819;SDS011;59678;52.476;6.046;2022-09-17T03:48:18;17.90;;;15.93;;
43819;SDS011;59678;52.476;6.046;2022-09-17T03:50:43;21.27;;;14.00;;
43819;SDS011;59678;52.476;6.046;2022-09-17T03:53:09;18.38;;;16.88;;
43819;SDS011;59678;52.476;6.046;2022-09-17T03:55:38;18.40;;;17.02;;
43819;SDS011;59678;52.476;6.046;2022-09-17T03:58:04;13.77;;;11.27;;
43819;SDS011;59678;52.476;6.046;2022-09-17T04:00:30;21.15;;;19.40;;
43819;SDS011;59678;52.476;6.046;2022-09-17T04:02:55;21.85;;;19.73;;
43819;SDS011;59678;52.476;6.046;2022-09-17T04:05:20;23.10;;;20.95;;
43819;SDS011;59678;52.476;6.046;2022-09-17T04:07:46;30.00;;;27.58;;
43819;SDS011;59678;52.476;6.046;2022-09-17T04:10:12;27.40;;;24.95;;
43819;SDS011;59678;52.476;6.046;2022-09-17T04:12:38;30.38;;;27.83;;
43819;SDS011;59678;52.476;6.046;2022-09-17T04:15:04;25.27;;;23.23;;
43819;SDS011;59678;52.476;6.046;2022-09-17T04:17:29;21.10;;;19.55;;
43819;SDS011;59678;52.476;6.046;2022-09-17T04:19:55;21.73;;;19.50;;
43819;SDS011;59678;52.476;6.046;2022-09-17T04:22:21;23.75;;;21.85;;
43819;SDS011;59678;52.476;6.046;2022-09-17T04:24:47;17.77;;;14.93;;
43819;SDS011;59678;52.476;6.046;2022-09-17T04:27:12;17.63;;;16.33;;
43819;SDS011;59678;52.476;6.046;2022-09-17T04:29:38;22.17;;;19.83;;
43819;SDS011;59678;52.476;6.046;2022-09-17T04:32:04;19.85;;;17.95;;
43819;SDS011;59678;52.476;6.046;2022-09-17T04:34:29;20.02;;;18.10;;
43819;SDS011;59678;52.476;6.046;2022-09-17T04:36:56;17.20;;;10.27;;
43819;SDS011;59678;52.476;6.046;2022-09-17T04:39:21;11.50;;;6.53;;
43819;SDS011;59678;52.476;6.046;2022-09-17T04:41:47;16.60;;;6.78;;
43819;SDS011;59678;52.476;6.046;2022-09-17T04:44:13;14.75;;;5.97;;
43819;SDS011;59678;52.476;6.046;2022-09-17T04:46:39;10.07;;;5.63;;
43819;SDS011;59678;52.476;6.046;2022-09-17T04:49:04;8.23;;;4.22;;
43819;SDS011;59678;52.476;6.046;2022-09-17T04:51:30;5.50;;;2.92;;
43819;SDS011;59678;52.476;6.046;2022-09-17T04:53:55;12.68;;;4.57;;
43819;SDS011;59678;52.476;6.046;2022-09-17T04:56:21;7.97;;;3.40;;
43819;SDS011;59678;52.476;6.046;2022-09-17T04:58:47;11.80;;;4.57;;
43819;SDS011;59678;52.476;6.046;2022-09-17T05:01:12;13.95;;;3.80;;
43819;SDS011;59678;52.476;6.046;2022-09-17T05:03:39;17.02;;;6.22;;
43819;SDS011;59678;52.476;6.046;2022-09-17T05:06:05;10.85;;;2.90;;
43819;SDS011;59678;52.476;6.046;2022-09-17T05:08:30;6.88;;;1.95;;
43819;SDS011;59678;52.476;6.046;2022-09-17T05:10:56;8.18;;;2.38;;
43819;SDS011;59678;52.476;6.046;2022-09-17T05:13:22;7.28;;;3.20;;
43819;SDS011;59678;52.476;6.046;2022-09-17T05:15:47;11.07;;;2.38;;
43819;SDS011;59678;52.476;6.046;2022-09-17T05:18:13;19.25;;;3.33;;
43819;SDS011;59678;52.476;6.046;2022-09-17T05:20:39;10.18;;;2.88;;
43819;SDS011;59678;52.476;6.046;2022-09-17T05:23:04;14.93;;;2.63;;
43819;SDS011;59678;52.476;6.046;2022-09-17T05:25:30;7.78;;;2.22;;
43819;SDS011;59678;52.476;6.046;2022-09-17T05:27:56;8.95;;;1.70;;
43819;SDS011;59678;52.476;6.046;2022-09-17T05:30:22;8.73;;;2.42;;
43819;SDS011;59678;52.476;6.046;2022-09-17T05:32:47;9.75;;;2.53;;
43819;SDS011;59678;52.476;6.046;2022-09-17T05:35:14;10.68;;;2.60;;
43819;SDS011;59678;52.476;6.046;2022-09-17T05:37:39;9.18;;;2.30;;
43819;SDS011;59678;52.476;6.046;2022-09-17T05:40:05;6.38;;;1.48;;
43819;SDS011;59678;52.476;6.046;2022-09-17T05:42:32;8.90;;;1.70;;
43819;SDS011;59678;52.476;6.046;2022-09-17T05:44:57;10.25;;;2.30;;
43819;SDS011;59678;52.476;6.046;2022-09-17T05:47:23;3.90;;;1.30;;
43819;SDS011;59678;52.476;6.046;2022-09-17T05:49:49;5.25;;;1.02;;
43819;SDS011;59678;52.476;6.046;2022-09-17T05:52:14;3.67;;;0.85;;
43819;SDS011;59678;52.476;6.046;2022-09-17T05:54:40;6.78;;;1.08;;
43819;SDS011;59678;52.476;6.046;2022-09-17T05:57:06;7.70;;;1.02;;
43819;SDS011;59678;52.476;6.046;2022-09-17T05:59:32;4.53;;;1.00;;
43819;SDS011;59678;52.476;6.046;2022-09-17T06:01:58;4.68;;;0.98;;
43819;SDS011;59678;52.476;6.046;2022-09-17T06:04:24;7.15;;;1.80;;
43819;SDS011;59678;52.476;6.046;2022-09-17T06:06:49;3.75;;;0.88;;
43819;SDS011;59678;52.476;6.046;2022-09-17T06:09:15;4.72;;;1.45;;
43819;SDS011;59678;52.476;6.046;2022-09-17T06:11:40;5.38;;;1.42;;
43819;SDS011;59678;52.476;6.046;2022-09-17T06:14:07;5.18;;;0.95;;
43819;SDS011;59678;52.476;6.046;2022-09-17T06:16:33;4.03;;;0.90;;
43819;SDS011;59678;52.476;6.046;2022-09-17T06:18:58;3.83;;;0.60;;
43819;SDS011;59678;52.476;6.046;2022-09-17T06:21:24;4.63;;;0.70;;
43819;SDS011;59678;52.476;6.046;2022-09-17T06:23:50;6.10;;;1.00;;
43819;SDS011;59678;52.476;6.046;2022-09-17T06:26:16;6.93;;;1.40;;
43819;SDS011;59678;52.476;6.046;2022-09-17T06:28:42;7.32;;;1.33;;
43819;SDS011;59678;52.476;6.046;2022-09-17T06:31:08;6.75;;;0.93;;
43819;SDS011;59678;52.476;6.046;2022-09-17T06:33:34;5.70;;;0.93;;
43819;SDS011;59678;52.476;6.046;2022-09-17T06:36:04;8.48;;;1.10;;
43819;SDS011;59678;52.476;6.046;2022-09-17T06:38:32;3.03;;;0.70;;
43819;SDS011;59678;52.476;6.046;2022-09-17T06:40:57;6.45;;;1.10;;
43819;SDS011;59678;52.476;6.046;2022-09-17T06:43:23;5.32;;;1.05;;
43819;SDS011;59678;52.476;6.046;2022-09-17T06:45:52;9.90;;;1.55;;
43819;SDS011;59678;52.476;6.046;2022-09-17T06:48:18;2.38;;;0.55;;
43819;SDS011;59678;52.476;6.046;2022-09-17T06:50:44;5.00;;;0.93;;
43819;SDS011;59678;52.476;6.046;2022-09-17T06:53:09;3.08;;;0.73;;
43819;SDS011;59678;52.476;6.046;2022-09-17T06:55:35;2.53;;;0.60;;
43819;SDS011;59678;52.476;6.046;2022-09-17T06:58:00;4.03;;;0.65;;
43819;SDS011;59678;52.476;6.046;2022-09-17T07:00:26;5.82;;;0.90;;
43819;SDS011;59678;52.476;6.046;2022-09-17T07:02:55;2.45;;;0.63;;
43819;SDS011;59678;52.476;6.046;2022-09-17T07:05:22;6.55;;;0.70;;
43819;SDS011;59678;52.476;6.046;2022-09-17T07:07:48;2.33;;;0.50;;
43819;SDS011;59678;52.476;6.046;2022-09-17T07:10:14;1.85;;;0.50;;
43819;SDS011;59678;52.476;6.046;2022-09-17T07:12:40;5.90;;;0.73;;
43819;SDS011;59678;52.476;6.046;2022-09-17T07:15:06;2.90;;;0.68;;
43819;SDS011;59678;52.476;6.046;2022-09-17T07:17:31;3.70;;;0.70;;
43819;SDS011;59678;52.476;6.046;2022-09-17T07:19:57;2.28;;;0.50;;
43819;SDS011;59678;52.476;6.046;2022-09-17T07:22:23;3.58;;;0.70;;
43819;SDS011;59678;52.476;6.046;2022-09-17T07:24:49;1.75;;;0.68;;
43819;SDS011;59678;52.476;6.046;2022-09-17T07:27:14;4.65;;;0.60;;
43819;SDS011;59678;52.476;6.046;2022-09-17T07:29:40;3.15;;;0.70;;
43819;SDS011;59678;52.476;6.046;2022-09-17T07:32:06;9.55;;;2.38;;
43819;SDS011;59678;52.476;6.046;2022-09-17T07:34:31;7.82;;;1.63;;
43819;SDS011;59678;52.476;6.046;2022-09-17T07:36:57;5.80;;;0.68;;
43819;SDS011;59678;52.476;6.046;2022-09-17T07:39:22;3.42;;;0.77;;
43819;SDS011;59678;52.476;6.046;2022-09-17T07:41:48;9.57;;;0.80;;
43819;SDS011;59678;52.476;6.046;2022-09-17T07:44:14;11.02;;;1.38;;
43819;SDS011;59678;52.476;6.046;2022-09-17T07:46:39;6.93;;;1.00;;
43819;SDS011;59678;52.476;6.046;2022-09-17T07:49:05;3.53;;;0.45;;
43819;SDS011;59678;52.476;6.046;2022-09-17T07:51:30;6.18;;;1.17;;
43819;SDS011;59678;52.476;6.046;2022-09-17T07:53:57;4.18;;;0.60;;
43819;SDS011;59678;52.476;6.046;2022-09-17T07:56:22;4.70;;;1.00;;
43819;SDS011;59678;52.476;6.046;2022-09-17T07:58:48;3.10;;;0.63;;
43819;SDS011;59678;52.476;6.046;2022-09-17T08:01:14;2.58;;;0.65;;
43819;SDS011;59678;52.476;6.046;2022-09-17T08:03:46;2.30;;;0.60;;
43819;SDS011;59678;52.476;6.046;2022-09-17T08:06:13;1.60;;;0.50;;
43819;SDS011;59678;52.476;6.046;2022-09-17T08:08:39;6.40;;;0.70;;
43819;SDS011;59678;52.476;6.046;2022-09-17T08:11:06;4.85;;;1.27;;
43819;SDS011;59678;52.476;6.046;2022-09-17T08:13:33;1.63;;;0.52;;
43819;SDS011;59678;52.476;6.046;2022-09-17T08:16:16;3.85;;;0.73;;
43819;SDS011;59678;52.476;6.046;2022-09-17T08:18:42;5.38;;;0.50;;
43819;SDS011;59678;52.476;6.046;2022-09-17T08:21:09;3.60;;;0.70;;
43819;SDS011;59678;52.476;6.046;2022-09-17T08:23:35;1.80;;;0.55;;
43819;SDS011;59678;52.476;6.046;2022-09-17T08:26:01;7.55;;;0.85;;
43819;SDS011;59678;52.476;6.046;2022-09-17T08:28:29;3.00;;;1.15;;
43819;SDS011;59678;52.476;6.046;2022-09-17T08:30:59;2.33;;;0.40;;
43819;SDS011;59678;52.476;6.046;2022-09-17T08:33:25;2.97;;;0.60;;
43819;SDS011;59678;52.476;6.046;2022-09-17T08:35:54;3.90;;;0.75;;
43819;SDS011;59678;52.476;6.046;2022-09-17T08:38:24;4.10;;;0.80;;
43819;SDS011;59678;52.476;6.046;2022-09-17T08:43:36;3.88;;;0.68;;
43819;SDS011;59678;52.476;6.046;2022-09-17T08:46:04;7.60;;;0.50;;
43819;SDS011;59678;52.476;6.046;2022-09-17T08:48:38;2.20;;;0.50;;
43819;SDS011;59678;52.476;6.046;2022-09-17T08:51:07;1.77;;;0.38;;
43819;SDS011;59678;52.476;6.046;2022-09-17T09:03:50;4.38;;;1.35;;
43819;SDS011;59678;52.476;6.046;2022-09-17T09:06:22;5.47;;;0.90;;
43819;SDS011;59678;52.476;6.046;2022-09-17T09:09:21;4.40;;;0.68;;
43819;SDS011;59678;52.476;6.046;2022-09-17T09:11:40;3.05;;;0.68;;
43819;SDS011;59678;52.476;6.046;2022-09-17T09:16:39;4.57;;;0.70;;
43819;SDS011;59678;52.476;6.046;2022-09-17T09:24:15;3.28;;;0.50;;
43819;SDS011;59678;52.476;6.046;2022-09-17T09:26:44;1.27;;;0.30;;
43819;SDS011;59678;52.476;6.046;2022-09-17T09:29:27;2.38;;;0.40;;
43819;SDS011;59678;52.476;6.046;2022-09-17T09:32:03;2.45;;;0.60;;
43819;SDS011;59678;52.476;6.046;2022-09-17T09:34:29;1.15;;;0.40;;
43819;SDS011;59678;52.476;6.046;2022-09-17T09:39:34;4.22;;;0.50;;
43819;SDS011;59678;52.476;6.046;2022-09-17T09:44:37;0.75;;;0.30;;
43819;SDS011;59678;52.476;6.046;2022-09-17T09:47:15;1.75;;;0.52;;
43819;SDS011;59678;52.476;6.046;2022-09-17T09:49:50;2.63;;;0.50;;
43819;SDS011;59678;52.476;6.046;2022-09-17T09:54:58;3.03;;;0.60;;
43819;SDS011;59678;52.476;6.046;2022-09-17T10:00:19;1.02;;;0.45;;
43819;SDS011;59678;52.476;6.046;2022-09-17T10:02:46;1.75;;;0.50;;
43819;SDS011;59678;52.476;6.046;2022-09-17T10:05:12;0.60;;;0.30;;
43819;SDS011;59678;52.476;6.046;2022-09-17T10:07:44;1.95;;;0.38;;
43819;SDS011;59678;52.476;6.046;2022-09-17T10:10:10;0.88;;;0.43;;
43819;SDS011;59678;52.476;6.046;2022-09-17T10:12:35;5.43;;;0.60;;
43819;SDS011;59678;52.476;6.046;2022-09-17T10:17:46;1.30;;;0.40;;
43819;SDS011;59678;52.476;6.046;2022-09-17T10:20:14;2.58;;;0.40;;
43819;SDS011;59678;52.476;6.046;2022-09-17T10:22:44;1.15;;;0.40;;
43819;SDS011;59678;52.476;6.046;2022-09-17T10:25:43;2.92;;;0.55;;
43819;SDS011;59678;52.476;6.046;2022-09-17T10:28:03;1.25;;;0.57;;
43819;SDS011;59678;52.476;6.046;2022-09-17T10:30:29;1.92;;;0.40;;
43819;SDS011;59678;52.476;6.046;2022-09-17T10:35:40;5.28;;;1.70;;
43819;SDS011;59678;52.476;6.046;2022-09-17T10:38:25;0.50;;;0.50;;
43819;SDS011;59678;52.476;6.046;2022-09-17T10:40:51;1.00;;;1.00;;
43819;SDS011;59678;52.476;6.046;2022-09-17T10:43:18;2.42;;;2.33;;
43819;SDS011;59678;52.476;6.046;2022-09-17T10:45:53;2.42;;;2.33;;
43819;SDS011;59678;52.476;6.046;2022-09-17T10:48:20;3.35;;;3.15;;
43819;SDS011;59678;52.476;6.046;2022-09-17T10:50:51;5.28;;;4.97;;
43819;SDS011;59678;52.476;6.046;2022-09-17T10:53:17;14.48;;;13.77;;
43819;SDS011;59678;52.476;6.046;2022-09-17T11:06:11;55.42;;;52.63;;
43819;SDS011;59678;52.476;6.046;2022-09-17T11:08:46;45.85;;;43.65;;
43819;SDS011;59678;52.476;6.046;2022-09-17T11:19:19;4.50;;;0.95;;
43819;SDS011;59678;52.476;6.046;2022-09-17T11:21:48;3.08;;;0.40;;
43819;SDS011;59678;52.476;6.046;2022-09-17T11:26:59;5.60;;;0.95;;
43819;SDS011;59678;52.476;6.046;2022-09-17T11:29:32;3.42;;;0.52;;
43819;SDS011;59678;52.476;6.046;2022-09-17T11:34:34;2.22;;;0.77;;
43819;SDS011;59678;52.476;6.046;2022-09-17T11:37:09;3.40;;;0.70;;
43819;SDS011;59678;52.476;6.046;2022-09-17T11:39:48;1.92;;;0.52;;
43819;SDS011;59678;52.476;6.046;2022-09-17T11:42:20;1.48;;;0.40;;
43819;SDS011;59678;52.476;6.046;2022-09-17T11:44:48;1.13;;;0.38;;
43819;SDS011;59678;52.476;6.046;2022-09-17T11:47:24;2.03;;;0.40;;
43819;SDS011;59678;52.476;6.046;2022-09-17T11:49:53;4.10;;;0.50;;
43819;SDS011;59678;52.476;6.046;2022-09-17T11:52:26;3.05;;;0.60;;
43819;SDS011;59678;52.476;6.046;2022-09-17T11:55:07;2.50;;;0.77;;
43819;SDS011;59678;52.476;6.046;2022-09-17T11:57:36;7.00;;;0.70;;
43819;SDS011;59678;52.476;6.046;2022-09-17T12:05:08;4.07;;;0.50;;
43819;SDS011;59678;52.476;6.046;2022-09-17T12:07:52;0.93;;;0.43;;
43819;SDS011;59678;52.476;6.046;2022-09-17T12:10:36;1.10;;;0.40;;
43819;SDS011;59678;52.476;6.046;2022-09-17T12:13:09;1.67;;;0.98;;
43819;SDS011;59678;52.476;6.046;2022-09-17T12:15:38;2.83;;;0.45;;
43819;SDS011;59678;52.476;6.046;2022-09-17T12:20:49;2.13;;;0.60;;
43819;SDS011;59678;52.476;6.046;2022-09-17T12:23:17;4.30;;;0.60;;
43819;SDS011;59678;52.476;6.046;2022-09-17T12:25:57;2.60;;;0.57;;
43819;SDS011;59678;52.476;6.046;2022-09-17T12:28:29;1.88;;;0.65;;
43819;SDS011;59678;52.476;6.046;2022-09-17T12:31:00;4.13;;;0.60;;
43819;SDS011;59678;52.476;6.046;2022-09-17T12:33:38;1.73;;;0.65;;
43819;SDS011;59678;52.476;6.046;2022-09-17T12:48:50;4.60;;;0.75;;
43819;SDS011;59678;52.476;6.046;2022-09-17T12:57:08;3.30;;;0.70;;
43819;SDS011;59678;52.476;6.046;2022-09-17T12:59:40;4.38;;;1.23;;
43819;SDS011;59678;52.476;6.046;2022-09-17T13:02:22;6.10;;;1.00;;
43819;SDS011;59678;52.476;6.046;2022-09-17T13:12:46;0.65;;;0.65;;
43819;SDS011;59678;52.476;6.046;2022-09-17T13:18:11;0.20;;;0.20;;
43819;SDS011;59678;52.476;6.046;2022-09-17T13:20:42;5.07;;;1.13;;
43819;SDS011;59678;52.476;6.046;2022-09-17T13:23:12;6.00;;;2.63;;
43819;SDS011;59678;52.476;6.046;2022-09-17T13:25:50;6.82;;;1.60;;
43819;SDS011;59678;52.476;6.046;2022-09-17T13:28:19;4.85;;;2.20;;
43819;SDS011;59678;52.476;6.046;2022-09-17T13:30:58;5.43;;;0.90;;
43819;SDS011;59678;52.476;6.046;2022-09-17T13:36:51;4.40;;;1.10;;
43819;SDS011;59678;52.476;6.046;2022-09-17T13:39:00;8.10;;;1.25;;
43819;SDS011;59678;52.476;6.046;2022-09-17T13:41:26;3.63;;;0.80;;
43819;SDS011;59678;52.476;6.046;2022-09-17T13:43:53;4.70;;;1.20;;
43819;SDS011;59678;52.476;6.046;2022-09-17T13:46:21;2.83;;;0.52;;
43819;SDS011;59678;52.476;6.046;2022-09-17T13:48:48;4.18;;;0.70;;
43819;SDS011;59678;52.476;6.046;2022-09-17T13:53:59;0.65;;;0.50;;
43819;SDS011;59678;52.476;6.046;2022-09-17T13:56:45;1.88;;;0.60;;
43819;SDS011;59678;52.476;6.046;2022-09-17T13:59:14;3.00;;;0.70;;
43819;SDS011;59678;52.476;6.046;2022-09-17T14:06:57;1.85;;;0.30;;
43819;SDS011;59678;52.476;6.046;2022-09-17T14:09:32;1.02;;;0.50;;
43819;SDS011;59678;52.476;6.046;2022-09-17T14:11:58;1.23;;;0.50;;
43819;SDS011;59678;52.476;6.046;2022-09-17T14:16:51;3.13;;;0.85;;
43819;SDS011;59678;52.476;6.046;2022-09-17T14:19:23;3.05;;;0.50;;
43819;SDS011;59678;52.476;6.046;2022-09-17T14:21:57;2.53;;;0.30;;
43819;SDS011;59678;52.476;6.046;2022-09-17T14:32:17;0.85;;;0.40;;
43819;SDS011;59678;52.476;6.046;2022-09-17T14:34:46;2.55;;;0.40;;
43819;SDS011;59678;52.476;6.046;2022-09-17T14:37:13;2.88;;;0.52;;
43819;SDS011;59678;52.476;6.046;2022-09-17T14:39:39;2.53;;;0.60;;
43819;SDS011;59678;52.476;6.046;2022-09-17T14:42:06;4.53;;;0.57;;
43819;SDS011;59678;52.476;6.046;2022-09-17T14:44:43;6.75;;;0.88;;
43819;SDS011;59678;52.476;6.046;2022-09-17T14:47:12;2.07;;;0.53;;
43819;SDS011;59678;52.476;6.046;2022-09-17T14:49:39;3.00;;;0.63;;
43819;SDS011;59678;52.476;6.046;2022-09-17T14:52:25;8.35;;;1.52;;
43819;SDS011;59678;52.476;6.046;2022-09-17T14:57:36;2.58;;;0.30;;
43819;SDS011;59678;52.476;6.046;2022-09-17T15:00:02;1.88;;;0.45;;
43819;SDS011;59678;52.476;6.046;2022-09-17T15:02:36;1.65;;;0.50;;
43819;SDS011;59678;52.476;6.046;2022-09-17T15:07:40;3.25;;;0.70;;
43819;SDS011;59678;52.476;6.046;2022-09-17T15:10:07;4.70;;;0.70;;
43819;SDS011;59678;52.476;6.046;2022-09-17T15:12:33;3.97;;;0.50;;
43819;SDS011;59678;52.476;6.046;2022-09-17T15:14:59;1.58;;;0.55;;
43819;SDS011;59678;52.476;6.046;2022-09-17T15:17:24;1.10;;;0.63;;
43819;SDS011;59678;52.476;6.046;2022-09-17T15:19:51;2.05;;;0.50;;
43819;SDS011;59678;52.476;6.046;2022-09-17T15:24:52;3.42;;;1.00;;
43819;SDS011;59678;52.476;6.046;2022-09-17T15:27:21;1.30;;;1.30;;
43819;SDS011;59678;52.476;6.046;2022-09-17T15:29:49;0.95;;;0.95;;
43819;SDS011;59678;52.476;6.046;2022-09-17T15:32:15;1.88;;;1.77;;
43819;SDS011;59678;52.476;6.046;2022-09-17T15:34:41;2.90;;;2.75;;
43819;SDS011;59678;52.476;6.046;2022-09-17T15:37:16;4.45;;;4.25;;
43819;SDS011;59678;52.476;6.046;2022-09-17T15:39:46;7.05;;;6.65;;
43819;SDS011;59678;52.476;6.046;2022-09-17T15:42:22;16.38;;;15.57;;
43819;SDS011;59678;52.476;6.046;2022-09-17T15:44:49;24.35;;;23.17;;
43819;SDS011;59678;52.476;6.046;2022-09-17T15:50:17;29.15;;;27.75;;
43819;SDS011;59678;52.476;6.046;2022-09-17T15:52:43;37.28;;;35.47;;
43819;SDS011;59678;52.476;6.046;2022-09-17T15:55:31;43.80;;;41.70;;
43819;SDS011;59678;52.476;6.046;2022-09-17T15:57:55;49.83;;;47.42;;
43819;SDS011;59678;52.476;6.046;2022-09-17T16:00:21;57.65;;;54.88;;
43819;SDS011;59678;52.476;6.046;2022-09-17T16:02:47;78.25;;;74.55;;
43819;SDS011;59678;52.476;6.046;2022-09-17T16:07:39;91.50;;;87.28;;
43819;SDS011;59678;52.476;6.046;2022-09-17T16:10:05;83.47;;;79.57;;
43819;SDS011;59678;52.476;6.046;2022-09-17T16:12:30;82.90;;;79.03;;
43819;SDS011;59678;52.476;6.046;2022-09-17T16:14:57;81.50;;;77.68;;
43819;SDS011;59678;52.476;6.046;2022-09-17T16:17:31;80.40;;;76.63;;
43819;SDS011;59678;52.476;6.046;2022-09-17T16:19:58;68.88;;;65.60;;
43819;SDS011;59678;52.476;6.046;2022-09-17T16:22:23;78.30;;;74.63;;
43819;SDS011;59678;52.476;6.046;2022-09-17T16:24:53;68.65;;;65.40;;
43819;SDS011;59678;52.476;6.046;2022-09-17T16:27:26;72.63;;;69.22;;
43819;SDS011;59678;52.476;6.046;2022-09-17T16:30:03;82.28;;;78.45;;
43819;SDS011;59678;52.476;6.046;2022-09-17T16:34:54;31.13;;;29.63;;
43819;SDS011;59678;52.476;6.046;2022-09-17T16:37:20;19.00;;;18.10;;
43819;SDS011;59678;52.476;6.046;2022-09-17T16:39:46;3.50;;;3.30;;
43819;SDS011;59678;52.476;6.046;2022-09-17T16:42:11;4.28;;;4.07;;
43819;SDS011;59678;52.476;6.046;2022-09-17T16:44:37;5.35;;;5.05;;
43819;SDS011;59678;52.476;6.046;2022-09-17T16:47:03;5.93;;;5.63;;
43819;SDS011;59678;52.476;6.046;2022-09-17T16:49:28;6.45;;;6.15;;
43819;SDS011;59678;52.476;6.046;2022-09-17T16:51:54;7.82;;;7.43;;
43819;SDS011;59678;52.476;6.046;2022-09-17T16:54:19;6.57;;;6.28;;
43819;SDS011;59678;52.476;6.046;2022-09-17T16:56:45;7.47;;;7.07;;
43819;SDS011;59678;52.476;6.046;2022-09-17T16:59:10;10.07;;;9.57;;
43819;SDS011;59678;52.476;6.046;2022-09-17T17:01:36;12.38;;;11.77;;
43819;SDS011;59678;52.476;6.046;2022-09-17T17:04:02;12.93;;;12.32;;
43819;SDS011;59678;52.476;6.046;2022-09-17T17:06:28;13.85;;;13.15;;
43819;SDS011;59678;52.476;6.046;2022-09-17T17:08:53;16.30;;;15.48;;
43819;SDS011;59678;52.476;6.046;2022-09-17T17:11:20;17.92;;;16.40;;
43819;SDS011;59678;52.476;6.046;2022-09-17T17:13:45;19.13;;;17.90;;
43819;SDS011;59678;52.476;6.046;2022-09-17T17:16:12;17.58;;;16.67;;
43819;SDS011;59678;52.476;6.046;2022-09-17T17:18:42;19.95;;;18.98;;
43819;SDS011;59678;52.476;6.046;2022-09-17T17:21:08;18.05;;;17.15;;
43819;SDS011;59678;52.476;6.046;2022-09-17T17:23:35;19.50;;;18.55;;
43819;SDS011;59678;52.476;6.046;2022-09-17T17:26:01;15.85;;;15.05;;
43819;SDS011;59678;52.476;6.046;2022-09-17T17:28:28;16.27;;;15.48;;
43819;SDS011;59678;52.476;6.046;2022-09-17T17:30:55;27.23;;;25.13;;
43819;SDS011;59678;52.476;6.046;2022-09-17T17:33:20;7.55;;;5.78;;
43819;SDS011;59678;52.476;6.046;2022-09-17T17:35:45;25.52;;;6.47;;
43819;SDS011;59678;52.476;6.046;2022-09-17T17:38:11;15.32;;;12.20;;
43819;SDS011;59678;52.476;6.046;2022-09-17T17:40:36;12.32;;;9.55;;